Time;durP1;ratioP1;P1;durP2;ratioP2;P2;SDS_P1;SDS_P2;PMS_P1;PMS_P2;Temp;Humidity;BMP_temperature;BMP_pressure;BME280_temperature;BME280_humidity;BME280_pressure;Samples;Min_cycle;Max_cycle;Signal;HPM_P1;HPM_P2
2023/12/25 00:00:40;;;;;;;26.05;3.22;;;;;;;;;;5073749;28;20100;-28
2023/12/25 00:03:05;;;;;;;21.02;3.22;;;;;;;;;;5072167;28;20048;-29
2023/12/25 00:05:30;;;;;;;18.00;2.97;;;;;;;;;;5074312;28;20032;-28
2023/12/25 00:07:55;;;;;;;17.93;3.40;;;;;;;;;;5073745;28;20515;-28
2023/12/25 00:10:20;;;;;;;14.80;3.10;;;;;;;;;;5073690;28;20303;-28
2023/12/25 00:12:46;;;;;;;27.17;3.63;;;;;;;;;;5073573;28;20262;-28
2023/12/25 00:15:11;;;;;;;21.60;3.50;;;;;;;;;;5073592;28;20319;-28
2023/12/25 00:17:36;;;;;;;15.43;2.97;;;;;;;;;;5073663;28;20259;-28
2023/12/25 00:20:03;;;;;;;19.92;2.90;;;;;;;;;;5074064;28;20013;-29
2023/12/25 00:22:28;;;;;;;16.73;3.20;;;;;;;;;;5073740;28;20052;-28
2023/12/25 00:24:53;;;;;;;16.07;2.73;;;;;;;;;;5073451;28;20012;-28
2023/12/25 00:27:20;;;;;;;15.17;2.60;;;;;;;;;;5074051;28;20261;-28
2023/12/25 00:29:45;;;;;;;14.90;2.60;;;;;;;;;;5073460;28;20253;-28
2023/12/25 00:32:11;;;;;;;20.67;2.73;;;;;;;;;;5074032;28;20103;-28
2023/12/25 00:34:36;;;;;;;14.37;2.90;;;;;;;;;;5073358;28;20618;-29
2023/12/25 00:37:02;;;;;;;17.27;2.50;;;;;;;;;;5073918;28;20300;-28
2023/12/25 00:39:27;;;;;;;18.15;2.90;;;;;;;;;;5073378;28;20674;-28
2023/12/25 00:41:52;;;;;;;9.77;2.10;;;;;;;;;;5072963;28;20029;-28
2023/12/25 00:44:17;;;;;;;12.60;2.30;;;;;;;;;;5073574;28;20315;-28
2023/12/25 00:46:43;;;;;;;11.50;1.90;;;;;;;;;;5073858;28;20520;-26
2023/12/25 00:49:08;;;;;;;9.90;2.05;;;;;;;;;;5073421;28;20277;-27
2023/12/25 00:51:33;;;;;;;12.40;2.10;;;;;;;;;;5073529;28;20021;-27
2023/12/25 00:54:00;;;;;;;14.13;2.53;;;;;;;;;;5073242;28;20111;-28
2023/12/25 00:56:25;;;;;;;15.90;2.17;;;;;;;;;;5073472;28;20259;-27
2023/12/25 00:58:50;;;;;;;19.03;2.47;;;;;;;;;;5073245;28;20479;-27
2023/12/25 01:01:15;;;;;;;16.67;2.23;;;;;;;;;;5073324;28;20282;-27
2023/12/25 01:03:41;;;;;;;10.90;2.35;;;;;;;;;;5073176;28;20309;-28
2023/12/25 01:06:06;;;;;;;17.85;2.45;;;;;;;;;;5073088;28;20530;-28
2023/12/25 01:08:31;;;;;;;17.13;2.45;;;;;;;;;;5072985;28;20441;-27
2023/12/25 01:10:56;;;;;;;17.77;2.70;;;;;;;;;;5073646;28;20012;-27
2023/12/25 01:13:21;;;;;;;18.10;2.88;;;;;;;;;;5073277;28;20251;-28
2023/12/25 01:15:47;;;;;;;17.97;2.40;;;;;;;;;;5073017;28;20027;-27
2023/12/25 01:18:12;;;;;;;13.17;2.53;;;;;;;;;;5072946;28;20319;-27
2023/12/25 01:20:37;;;;;;;20.53;2.17;;;;;;;;;;5071662;28;20270;-28
2023/12/25 01:23:02;;;;;;;15.03;2.57;;;;;;;;;;5073025;28;20287;-28
2023/12/25 01:25:27;;;;;;;15.55;3.00;;;;;;;;;;5073380;28;20269;-28
2023/12/25 01:27:53;;;;;;;18.75;2.78;;;;;;;;;;5073070;28;20020;-27
2023/12/25 01:30:18;;;;;;;16.10;2.87;;;;;;;;;;5072835;28;20017;-27
2023/12/25 01:32:43;;;;;;;19.05;3.00;;;;;;;;;;5072846;28;20302;-27
2023/12/25 01:35:09;;;;;;;19.42;3.05;;;;;;;;;;5073064;28;20032;-27
2023/12/25 01:37:34;;;;;;;17.48;2.95;;;;;;;;;;5071472;28;20024;-27
2023/12/25 01:40:00;;;;;;;14.50;2.47;;;;;;;;;;5073324;28;20059;-28
2023/12/25 01:42:25;;;;;;;18.95;2.83;;;;;;;;;;5072815;28;20275;-27
2023/12/25 01:44:50;;;;;;;19.17;2.43;;;;;;;;;;5072724;28;20020;-27
2023/12/25 01:47:16;;;;;;;24.80;3.00;;;;;;;;;;5073281;28;20239;-28
2023/12/25 01:49:42;;;;;;;17.67;2.60;;;;;;;;;;5072639;28;20618;-27
2023/12/25 01:52:07;;;;;;;10.55;2.10;;;;;;;;;;5072678;28;20020;-27
2023/12/25 01:54:33;;;;;;;16.70;2.90;;;;;;;;;;5076519;28;20038;-27
2023/12/25 01:56:58;;;;;;;16.48;3.20;;;;;;;;;;5076088;28;20157;-28
2023/12/25 01:59:26;;;;;;;16.55;2.22;;;;;;;;;;5076077;28;20036;-28
2023/12/25 02:01:51;;;;;;;13.00;2.33;;;;;;;;;;5076254;28;20031;-29
2023/12/25 02:04:16;;;;;;;16.97;2.33;;;;;;;;;;5075923;28;20040;-27
2023/12/25 02:06:41;;;;;;;14.10;2.40;;;;;;;;;;5075921;28;20765;-27
2023/12/25 02:09:07;;;;;;;15.85;2.78;;;;;;;;;;5076169;28;20304;-27
2023/12/25 02:11:32;;;;;;;14.90;2.00;;;;;;;;;;5076258;28;20034;-27
2023/12/25 02:13:57;;;;;;;15.40;2.63;;;;;;;;;;5074945;28;20405;-28
2023/12/25 02:16:23;;;;;;;12.23;2.00;;;;;;;;;;5075832;28;20384;-27
2023/12/25 02:18:49;;;;;;;14.30;2.15;;;;;;;;;;5076278;28;20265;-28
2023/12/25 02:21:14;;;;;;;19.63;3.10;;;;;;;;;;5075952;28;20472;-28
2023/12/25 02:23:41;;;;;;;7.77;2.13;;;;;;;;;;5075630;28;20012;-28
2023/12/25 02:26:07;;;;;;;17.02;2.97;;;;;;;;;;5075618;28;20017;-27
2023/12/25 02:28:32;;;;;;;10.55;1.80;;;;;;;;;;5075393;28;20024;-27
2023/12/25 02:30:58;;;;;;;11.27;1.77;;;;;;;;;;5075722;28;20019;-27
2023/12/25 02:33:23;;;;;;;13.35;1.70;;;;;;;;;;5075421;28;20606;-28
2023/12/25 02:35:49;;;;;;;8.32;1.50;;;;;;;;;;5075337;28;20409;-28
2023/12/25 02:38:14;;;;;;;9.25;1.27;;;;;;;;;;5074084;28;20020;-27
2023/12/25 02:40:39;;;;;;;6.70;1.17;;;;;;;;;;5075372;28;20020;-28
2023/12/25 02:43:06;;;;;;;6.83;1.50;;;;;;;;;;5075297;28;20282;-28
2023/12/25 02:45:31;;;;;;;10.25;2.03;;;;;;;;;;5075794;28;20243;-27
2023/12/25 02:47:56;;;;;;;13.63;2.10;;;;;;;;;;5075208;28;20043;-28
2023/12/25 02:50:22;;;;;;;15.37;2.43;;;;;;;;;;5073879;28;20341;-28
2023/12/25 02:52:47;;;;;;;15.77;2.70;;;;;;;;;;5075397;28;20259;-27
2023/12/25 02:55:12;;;;;;;18.10;3.10;;;;;;;;;;5074950;28;20350;-28
2023/12/25 02:57:37;;;;;;;14.50;2.40;;;;;;;;;;5075037;28;20262;-28
2023/12/25 03:00:02;;;;;;;15.50;2.90;;;;;;;;;;5075580;28;20028;-28
2023/12/25 03:02:28;;;;;;;9.77;1.95;;;;;;;;;;5075142;28;20049;-27
2023/12/25 03:04:53;;;;;;;17.47;2.60;;;;;;;;;;5073960;28;20047;-27
2023/12/25 03:07:18;;;;;;;14.55;2.10;;;;;;;;;;5074855;28;20243;-28
2023/12/25 03:09:44;;;;;;;14.93;2.47;;;;;;;;;;5075374;28;20025;-28
2023/12/25 03:12:09;;;;;;;12.93;2.60;;;;;;;;;;5074990;28;20021;-28
2023/12/25 03:14:34;;;;;;;18.73;2.80;;;;;;;;;;5075203;28;20052;-28
2023/12/25 03:16:59;;;;;;;15.63;2.20;;;;;;;;;;5074678;28;20587;-28
2023/12/25 03:19:24;;;;;;;11.63;2.07;;;;;;;;;;5074876;28;20020;-28
2023/12/25 03:21:50;;;;;;;11.77;2.10;;;;;;;;;;5074479;28;20320;-28
2023/12/25 03:24:15;;;;;;;12.13;2.80;;;;;;;;;;5074425;28;20254;-28
2023/12/25 03:26:40;;;;;;;14.03;2.03;;;;;;;;;;5075037;28;20027;-28
2023/12/25 03:29:05;;;;;;;9.50;1.77;;;;;;;;;;5073131;28;20124;-28
2023/12/25 03:31:31;;;;;;;17.80;2.33;;;;;;;;;;5074887;28;20077;-28
2023/12/25 03:33:58;;;;;;;15.23;2.20;;;;;;;;;;5074580;28;20038;-28
2023/12/25 03:36:23;;;;;;;15.43;2.22;;;;;;;;;;5074540;28;20017;-28
2023/12/25 03:38:48;;;;;;;16.15;2.60;;;;;;;;;;5073015;28;20379;-29
2023/12/25 03:41:14;;;;;;;18.80;2.37;;;;;;;;;;5074480;28;20126;-28
2023/12/25 03:43:40;;;;;;;13.00;2.00;;;;;;;;;;5073102;28;20021;-28
2023/12/25 03:46:06;;;;;;;13.38;1.80;;;;;;;;;;5075131;28;20066;-28
2023/12/25 03:48:31;;;;;;;11.93;2.10;;;;;;;;;;5074043;28;20021;-28
2023/12/25 03:50:56;;;;;;;16.13;2.00;;;;;;;;;;5074576;28;20019;-28
2023/12/25 03:53:21;;;;;;;13.60;2.40;;;;;;;;;;5073962;28;20379;-28
2023/12/25 03:55:46;;;;;;;13.50;2.40;;;;;;;;;;5074467;28;20021;-28
2023/12/25 03:58:11;;;;;;;11.40;1.95;;;;;;;;;;5073862;28;20729;-27
2023/12/25 04:00:37;;;;;;;13.07;2.27;;;;;;;;;;5073856;28;20129;-27
2023/12/25 04:03:02;;;;;;;12.70;2.30;;;;;;;;;;5073562;28;20754;-28
2023/12/25 04:05:27;;;;;;;14.07;2.15;;;;;;;;;;5074258;28;20044;-27
2023/12/25 04:07:53;;;;;;;13.38;2.00;;;;;;;;;;5073766;28;20498;-28
2023/12/25 04:10:18;;;;;;;8.33;1.97;;;;;;;;;;5073672;28;20020;-28
2023/12/25 04:12:44;;;;;;;16.95;2.10;;;;;;;;;;5073800;28;20131;-28
2023/12/25 04:15:09;;;;;;;12.37;2.10;;;;;;;;;;5074236;28;20104;-28
2023/12/25 04:17:34;;;;;;;18.90;2.70;;;;;;;;;;5072297;28;20660;-28
2023/12/25 04:20:00;;;;;;;16.95;2.40;;;;;;;;;;5073829;28;20052;-29
2023/12/25 04:22:25;;;;;;;13.95;2.30;;;;;;;;;;5073749;28;20044;-28
2023/12/25 04:24:50;;;;;;;10.53;2.20;;;;;;;;;;5074637;28;20023;-28
2023/12/25 04:27:15;;;;;;;12.93;2.33;;;;;;;;;;5073781;28;20023;-29
2023/12/25 04:29:40;;;;;;;14.38;2.10;;;;;;;;;;5073388;28;20258;-29
2023/12/25 04:32:06;;;;;;;12.63;2.23;;;;;;;;;;5073737;28;20387;-29
2023/12/25 04:34:31;;;;;;;13.75;2.10;;;;;;;;;;5073351;28;20259;-28
2023/12/25 04:36:56;;;;;;;11.80;2.20;;;;;;;;;;5073336;28;20032;-29
2023/12/25 04:39:21;;;;;;;15.33;2.17;;;;;;;;;;5073353;28;20031;-28
2023/12/25 04:41:46;;;;;;;20.45;2.38;;;;;;;;;;5073267;28;20309;-28
2023/12/25 04:44:12;;;;;;;13.33;2.20;;;;;;;;;;5073675;28;20422;-28
2023/12/25 04:46:39;;;;;;;19.67;1.83;;;;;;;;;;5073826;28;20250;-28
2023/12/25 04:49:05;;;;;;;10.43;1.95;;;;;;;;;;5073565;28;20259;-29
2023/12/25 04:51:30;;;;;;;19.05;2.35;;;;;;;;;;5073275;28;20399;-28
2023/12/25 04:53:55;;;;;;;15.73;1.93;;;;;;;;;;5073315;28;20463;-28
2023/12/25 04:56:20;;;;;;;17.33;2.27;;;;;;;;;;5073194;28;20021;-28
2023/12/25 04:58:45;;;;;;;13.70;2.10;;;;;;;;;;5073507;28;20292;-29
2023/12/25 05:01:11;;;;;;;8.27;1.73;;;;;;;;;;5073118;28;20477;-29
2023/12/25 05:03:37;;;;;;;18.67;2.20;;;;;;;;;;5073011;28;20386;-29
2023/12/25 05:06:02;;;;;;;10.65;1.92;;;;;;;;;;5073095;28;20250;-28
2023/12/25 05:08:27;;;;;;;15.57;2.20;;;;;;;;;;5073333;28;20017;-28
2023/12/25 05:10:52;;;;;;;12.50;2.07;;;;;;;;;;5073068;28;20487;-28
2023/12/25 05:13:18;;;;;;;14.20;3.20;;;;;;;;;;5072959;28;20325;-27
2023/12/25 05:15:43;;;;;;;19.67;2.33;;;;;;;;;;5073240;28;20251;-27
2023/12/25 05:18:08;;;;;;;11.00;1.93;;;;;;;;;;5073208;28;20741;-28
2023/12/25 05:20:33;;;;;;;12.85;2.30;;;;;;;;;;5073237;28;20262;-27
2023/12/25 05:22:58;;;;;;;17.23;2.60;;;;;;;;;;5073181;28;20048;-29
2023/12/25 05:25:23;;;;;;;16.37;2.30;;;;;;;;;;5073441;28;20040;-27
2023/12/25 05:27:49;;;;;;;14.68;2.20;;;;;;;;;;5073784;28;20246;-28
2023/12/25 05:30:14;;;;;;;20.53;2.67;;;;;;;;;;5076706;28;20013;-29
2023/12/25 05:32:39;;;;;;;16.08;2.40;;;;;;;;;;5076919;28;20372;-28
2023/12/25 05:35:05;;;;;;;17.08;2.95;;;;;;;;;;5076602;28;20024;-28
2023/12/25 05:37:30;;;;;;;15.38;2.42;;;;;;;;;;5076471;28;20468;-28
2023/12/25 05:39:56;;;;;;;14.43;2.00;;;;;;;;;;5076533;28;20020;-27
2023/12/25 05:42:21;;;;;;;19.23;2.83;;;;;;;;;;5076893;28;20029;-28
2023/12/25 05:44:46;;;;;;;20.33;3.17;;;;;;;;;;5076662;28;20703;-28
2023/12/25 05:47:11;;;;;;;17.10;2.50;;;;;;;;;;5076376;28;20456;-28
2023/12/25 05:49:38;;;;;;;17.43;2.43;;;;;;;;;;5076628;28;20266;-28
2023/12/25 05:52:03;;;;;;;16.08;2.22;;;;;;;;;;5076479;28;20610;-28
2023/12/25 05:54:28;;;;;;;15.60;2.72;;;;;;;;;;5076239;28;20035;-28
2023/12/25 05:56:53;;;;;;;12.03;1.90;;;;;;;;;;5076248;28;20026;-28
2023/12/25 05:59:19;;;;;;;10.60;1.87;;;;;;;;;;5076728;28;20333;-28
2023/12/25 06:01:44;;;;;;;12.90;1.77;;;;;;;;;;5075982;28;20016;-28
2023/12/25 06:04:09;;;;;;;17.30;2.20;;;;;;;;;;5076193;28;20048;-28
2023/12/25 06:06:34;;;;;;;11.70;2.10;;;;;;;;;;5076286;28;20063;-28
2023/12/25 06:08:59;;;;;;;12.73;1.88;;;;;;;;;;5076317;28;20023;-28
2023/12/25 06:11:25;;;;;;;12.00;1.57;;;;;;;;;;5075896;28;20487;-28
2023/12/25 06:13:50;;;;;;;9.13;1.63;;;;;;;;;;5075918;28;20262;-28
2023/12/25 06:16:15;;;;;;;8.40;1.40;;;;;;;;;;5076077;28;20259;-28
2023/12/25 06:18:40;;;;;;;12.13;1.55;;;;;;;;;;5075830;28;20024;-28
2023/12/25 06:21:05;;;;;;;9.70;1.80;;;;;;;;;;5075939;28;20546;-32
2023/12/25 06:23:30;;;;;;;6.27;1.40;;;;;;;;;;5075752;28;20092;-28
2023/12/25 06:25:56;;;;;;;15.73;1.70;;;;;;;;;;5075692;28;20259;-28
2023/12/25 06:28:21;;;;;;;9.20;1.50;;;;;;;;;;5075572;28;20372;-29
2023/12/25 06:30:46;;;;;;;7.93;2.00;;;;;;;;;;5074340;28;20298;-28
2023/12/25 06:33:11;;;;;;;10.20;1.67;;;;;;;;;;5074331;28;20637;-28
2023/12/25 06:35:36;;;;;;;10.63;1.90;;;;;;;;;;5076084;28;20254;-29
2023/12/25 06:38:01;;;;;;;5.95;1.60;;;;;;;;;;5075446;28;20776;-28
2023/12/25 06:40:27;;;;;;;12.93;2.45;;;;;;;;;;5074139;28;20094;-29
2023/12/25 06:42:52;;;;;;;6.87;1.33;;;;;;;;;;5075829;28;20104;-29
2023/12/25 06:45:17;;;;;;;12.35;1.70;;;;;;;;;;5075632;28;20278;-29
2023/12/25 06:47:42;;;;;;;8.37;1.30;;;;;;;;;;5075278;28;20111;-28
2023/12/25 06:50:08;;;;;;;11.07;1.53;;;;;;;;;;5075232;28;20266;-28
2023/12/25 06:52:33;;;;;;;10.43;1.50;;;;;;;;;;5075161;28;20269;-29
2023/12/25 06:54:58;;;;;;;12.10;1.30;;;;;;;;;;5075717;28;20020;-29
2023/12/25 06:57:23;;;;;;;8.93;1.70;;;;;;;;;;5075062;28;20250;-28
2023/12/25 06:59:48;;;;;;;4.35;1.17;;;;;;;;;;5074982;28;20020;-29
2023/12/25 07:02:13;;;;;;;10.75;1.42;;;;;;;;;;5074847;28;20115;-29
2023/12/25 07:04:39;;;;;;;11.25;1.40;;;;;;;;;;5074834;28;20569;-28
2023/12/25 07:07:04;;;;;;;10.00;1.80;;;;;;;;;;5074930;28;20082;-29
2023/12/25 07:09:29;;;;;;;11.77;1.47;;;;;;;;;;5074798;28;20353;-28
2023/12/25 07:11:55;;;;;;;11.07;2.45;;;;;;;;;;5074763;28;20320;-29
2023/12/25 07:14:20;;;;;;;12.48;1.55;;;;;;;;;;5074752;28;20066;-28
2023/12/25 07:16:45;;;;;;;11.80;1.73;;;;;;;;;;5074637;28;20025;-29
2023/12/25 07:19:10;;;;;;;9.23;1.70;;;;;;;;;;5075169;28;20034;-28
2023/12/25 07:21:35;;;;;;;9.57;1.63;;;;;;;;;;5074536;28;20275;-29
2023/12/25 07:24:01;;;;;;;11.98;1.58;;;;;;;;;;5074830;28;20298;-29
2023/12/25 07:26:26;;;;;;;7.70;1.58;;;;;;;;;;5074473;28;20545;-28
2023/12/25 07:28:51;;;;;;;10.25;1.83;;;;;;;;;;5074969;28;20016;-29
2023/12/25 07:31:17;;;;;;;10.00;1.70;;;;;;;;;;5074880;28;20463;-28
2023/12/25 07:33:42;;;;;;;9.18;1.50;;;;;;;;;;5074589;28;20023;-29
2023/12/25 07:36:08;;;;;;;11.33;1.60;;;;;;;;;;5074306;28;20091;-29
2023/12/25 07:38:34;;;;;;;12.13;1.60;;;;;;;;;;5074782;28;20253;-28
2023/12/25 07:40:59;;;;;;;9.15;1.50;;;;;;;;;;5074503;28;20020;-28
2023/12/25 07:43:26;;;;;;;11.00;2.00;;;;;;;;;;5074098;28;20074;-28
2023/12/25 07:45:51;;;;;;;10.85;1.50;;;;;;;;;;5074320;28;20066;-29
2023/12/25 07:48:16;;;;;;;8.33;1.57;;;;;;;;;;5074374;28;20363;-29
2023/12/25 07:50:42;;;;;;;11.73;1.90;;;;;;;;;;5074165;28;20247;-28
2023/12/25 07:53:07;;;;;;;11.45;2.10;;;;;;;;;;5074760;28;20748;-29
2023/12/25 07:55:35;;;;;;;15.15;1.80;;;;;;;;;;5074495;28;20017;-28
2023/12/25 07:58:00;;;;;;;10.50;1.67;;;;;;;;;;5073855;28;20016;-28
2023/12/25 08:00:25;;;;;;;9.48;1.63;;;;;;;;;;5073867;28;20017;-28
2023/12/25 08:02:50;;;;;;;15.53;2.00;;;;;;;;;;5074190;28;20020;-30
2023/12/25 08:05:15;;;;;;;12.50;2.23;;;;;;;;;;5074332;28;20017;-29
2023/12/25 08:07:40;;;;;;;11.07;1.85;;;;;;;;;;5074271;28;20368;-29
2023/12/25 08:10:06;;;;;;;8.57;1.33;;;;;;;;;;5073989;28;20373;-29
2023/12/25 08:12:31;;;;;;;7.97;1.70;;;;;;;;;;5073843;28;20312;-28
2023/12/25 08:14:56;;;;;;;13.80;1.83;;;;;;;;;;5073659;28;20024;-29
2023/12/25 08:17:21;;;;;;;7.87;1.50;;;;;;;;;;5073801;28;20331;-28
2023/12/25 08:19:47;;;;;;;9.67;1.57;;;;;;;;;;5073605;28;20255;-28
2023/12/25 08:22:12;;;;;;;8.45;1.38;;;;;;;;;;5073687;28;20372;-27
2023/12/25 08:24:37;;;;;;;8.05;1.48;;;;;;;;;;5074050;28;20024;-28
2023/12/25 08:27:03;;;;;;;7.97;1.87;;;;;;;;;;5073679;28;20016;-28
2023/12/25 08:29:28;;;;;;;14.38;1.80;;;;;;;;;;5073700;28;20304;-28
2023/12/25 08:31:53;;;;;;;13.35;1.77;;;;;;;;;;5073489;28;20348;-27
2023/12/25 08:34:18;;;;;;;9.27;1.93;;;;;;;;;;5073393;28;20020;-28
2023/12/25 08:36:44;;;;;;;10.80;1.70;;;;;;;;;;5073657;28;20275;-28
2023/12/25 08:39:09;;;;;;;12.43;2.50;;;;;;;;;;5073847;28;20017;-28
2023/12/25 08:41:34;;;;;;;8.83;1.83;;;;;;;;;;5073287;28;20031;-28
2023/12/25 08:43:59;;;;;;;8.98;1.70;;;;;;;;;;5073615;28;20042;-28
2023/12/25 08:46:24;;;;;;;10.53;1.70;;;;;;;;;;5073225;28;20012;-28
2023/12/25 08:48:50;;;;;;;11.13;1.88;;;;;;;;;;5073542;28;20259;-28
2023/12/25 08:51:15;;;;;;;8.65;1.70;;;;;;;;;;5073153;28;20527;-28
2023/12/25 08:53:41;;;;;;;7.50;1.50;;;;;;;;;;5073215;28;20016;-28
2023/12/25 08:56:06;;;;;;;9.38;1.42;;;;;;;;;;5073176;28;20308;-28
2023/12/25 08:58:32;;;;;;;8.37;1.70;;;;;;;;;;5073134;28;20470;-28
2023/12/25 09:00:57;;;;;;;9.53;1.60;;;;;;;;;;5073730;28;20254;-28
2023/12/25 09:03:22;;;;;;;14.93;1.50;;;;;;;;;;5073810;28;20040;-28
2023/12/25 09:05:48;;;;;;;6.47;1.30;;;;;;;;;;5077512;28;20078;-28
2023/12/25 09:08:13;;;;;;;10.20;1.60;;;;;;;;;;5077349;28;20253;-28
2023/12/25 09:10:39;;;;;;;7.67;1.43;;;;;;;;;;5077055;28;20459;-28
2023/12/25 09:13:04;;;;;;;13.43;1.90;;;;;;;;;;5076964;28;20269;-27
2023/12/25 09:15:29;;;;;;;11.17;1.20;;;;;;;;;;5077025;28;20035;-27
2023/12/25 09:17:54;;;;;;;8.18;1.60;;;;;;;;;;5077660;28;20259;-27
2023/12/25 09:20:19;;;;;;;6.23;1.23;;;;;;;;;;5077377;28;20096;-27
2023/12/25 09:22:45;;;;;;;6.03;1.50;;;;;;;;;;5077072;28;20016;-27
2023/12/25 09:25:10;;;;;;;7.60;1.23;;;;;;;;;;5076809;28;20016;-27
2023/12/25 09:27:35;;;;;;;6.90;1.30;;;;;;;;;;5076690;28;20323;-27
2023/12/25 09:30:01;;;;;;;8.15;1.25;;;;;;;;;;5077212;28;20024;-28
2023/12/25 09:32:27;;;;;;;8.88;1.80;;;;;;;;;;5076659;28;20024;-27
2023/12/25 09:34:52;;;;;;;6.32;1.45;;;;;;;;;;5076897;28;20017;-28
2023/12/25 09:37:17;;;;;;;10.63;1.77;;;;;;;;;;5077107;28;20367;-28
2023/12/25 09:39:43;;;;;;;7.30;1.53;;;;;;;;;;5076544;28;20353;-28
2023/12/25 09:42:09;;;;;;;8.35;1.77;;;;;;;;;;5076314;28;20293;-28
2023/12/25 09:44:34;;;;;;;10.75;1.88;;;;;;;;;;5077014;28;20016;-27
2023/12/25 09:47:00;;;;;;;10.00;1.60;;;;;;;;;;5076552;28;20040;-27
2023/12/25 09:49:25;;;;;;;7.43;1.60;;;;;;;;;;5075493;28;20024;-28
2023/12/25 09:51:53;;;;;;;10.18;1.90;;;;;;;;;;5075901;28;20066;-28
2023/12/25 09:54:18;;;;;;;10.82;1.90;;;;;;;;;;5076491;28;20028;-28
2023/12/25 09:56:43;;;;;;;6.67;1.80;;;;;;;;;;5076192;28;20525;-28
2023/12/25 09:59:09;;;;;;;8.05;2.65;;;;;;;;;;5076162;28;20258;-28
2023/12/25 10:01:35;;;;;;;10.38;2.67;;;;;;;;;;5075973;28;20023;-28
2023/12/25 10:04:00;;;;;;;12.07;2.50;;;;;;;;;;5075855;28;20088;-29
2023/12/25 10:06:25;;;;;;;8.43;2.65;;;;;;;;;;5075150;28;20019;-28
2023/12/25 10:08:50;;;;;;;15.13;2.77;;;;;;;;;;5076529;28;20023;-28
2023/12/25 10:11:16;;;;;;;8.17;2.97;;;;;;;;;;5076143;28;20278;-28
2023/12/25 10:13:41;;;;;;;14.40;3.43;;;;;;;;;;5075568;28;20357;-28
2023/12/25 10:16:06;;;;;;;13.48;3.60;;;;;;;;;;5075827;28;20338;-28
2023/12/25 10:18:33;;;;;;;12.48;3.38;;;;;;;;;;5075713;28;20034;-28
2023/12/25 10:21:00;;;;;;;9.65;1.83;;;;;;;;;;5076547;28;20021;-28
2023/12/25 10:23:32;;;;;;;6.43;2.00;;;;;;;;;;5075897;28;20044;-28
2023/12/25 10:25:58;;;;;;;8.98;1.80;;;;;;;;;;5075744;28;20056;-28
2023/12/25 10:28:27;;;;;;;8.50;2.15;;;;;;;;;;5075619;28;20020;-28
2023/12/25 10:31:03;;;;;;;11.38;2.75;;;;;;;;;;5075539;28;20099;-28
2023/12/25 10:33:29;;;;;;;11.05;2.30;;;;;;;;;;5075773;28;20024;-29
2023/12/25 10:36:10;;;;;;;7.85;2.00;;;;;;;;;;5075747;28;20021;-29
2023/12/25 10:38:39;;;;;;;7.82;2.30;;;;;;;;;;5075467;28;20483;-28
2023/12/25 10:41:25;;;;;;;10.40;2.25;;;;;;;;;;5076228;28;20099;-28
2023/12/25 10:43:54;;;;;;;6.75;1.95;;;;;;;;;;5075611;28;20025;-28
2023/12/25 10:46:21;;;;;;;8.15;1.80;;;;;;;;;;5074790;28;20028;-28
2023/12/25 10:48:49;;;;;;;10.38;2.10;;;;;;;;;;5075834;28;20104;-27
2023/12/25 10:51:34;;;;;;;9.68;2.38;;;;;;;;;;5075123;28;20100;-28
2023/12/25 10:54:01;;;;;;;8.63;2.60;;;;;;;;;;5075457;28;20044;-27
2023/12/25 10:56:27;;;;;;;9.75;2.05;;;;;;;;;;5075355;28;20455;-27
2023/12/25 10:58:53;;;;;;;7.60;2.33;;;;;;;;;;5075015;28;20047;-28
2023/12/25 11:01:21;;;;;;;7.53;2.00;;;;;;;;;;5074846;28;20130;-28
2023/12/25 11:03:47;;;;;;;5.85;2.08;;;;;;;;;;5075252;28;20106;-27
2023/12/25 11:06:12;;;;;;;8.32;1.65;;;;;;;;;;5074883;28;20016;-28
2023/12/25 11:08:38;;;;;;;5.43;1.40;;;;;;;;;;5075861;28;20017;-28
2023/12/25 11:11:03;;;;;;;7.35;1.70;;;;;;;;;;5074928;28;20013;-28
2023/12/25 11:13:28;;;;;;;9.68;1.77;;;;;;;;;;5074886;28;20103;-27
2023/12/25 11:15:54;;;;;;;8.80;1.90;;;;;;;;;;5074714;28;20082;-27
2023/12/25 11:18:20;;;;;;;5.28;1.65;;;;;;;;;;5074576;28;20012;-28
2023/12/25 11:21:00;;;;;;;10.30;1.40;;;;;;;;;;5075160;28;20059;-27
2023/12/25 11:23:26;;;;;;;8.43;1.55;;;;;;;;;;5074351;28;20016;-28
2023/12/25 11:25:52;;;;;;;7.30;1.50;;;;;;;;;;5073663;28;20096;-28
2023/12/25 11:28:19;;;;;;;12.20;1.77;;;;;;;;;;5074348;28;20258;-28
2023/12/25 11:30:44;;;;;;;6.40;1.65;;;;;;;;;;5074349;28;20027;-28
2023/12/25 11:33:11;;;;;;;11.30;2.03;;;;;;;;;;5074281;28;20096;-28
2023/12/25 11:35:37;;;;;;;6.60;1.50;;;;;;;;;;5075080;28;20259;-27
2023/12/25 11:38:21;;;;;;;8.38;1.98;;;;;;;;;;5074735;28;20028;-28
2023/12/25 11:40:48;;;;;;;6.88;1.35;;;;;;;;;;5074144;28;20024;-28
2023/12/25 11:43:13;;;;;;;8.68;1.92;;;;;;;;;;5073977;28;20024;-27
2023/12/25 11:45:42;;;;;;;8.55;1.52;;;;;;;;;;5074117;28;20355;-28
2023/12/25 11:48:10;;;;;;;7.90;1.52;;;;;;;;;;5074095;28;20024;-27
2023/12/25 11:50:36;;;;;;;7.85;1.33;;;;;;;;;;5073968;28;20016;-28
2023/12/25 11:53:01;;;;;;;8.27;1.60;;;;;;;;;;5073945;28;20031;-28
2023/12/25 11:55:26;;;;;;;6.17;1.57;;;;;;;;;;5073810;28;20682;-28
2023/12/25 11:57:52;;;;;;;8.48;1.60;;;;;;;;;;5072523;28;20266;-27
2023/12/25 12:00:22;;;;;;;6.40;1.65;;;;;;;;;;5073845;28;20110;-27
2023/12/25 12:02:47;;;;;;;11.95;2.05;;;;;;;;;;5073896;28;20166;-28
2023/12/25 12:05:12;;;;;;;7.50;1.30;;;;;;;;;;5074005;28;20475;-27
2023/12/25 12:07:38;;;;;;;6.32;1.20;;;;;;;;;;5073974;28;20353;-28
2023/12/25 12:10:03;;;;;;;9.82;1.45;;;;;;;;;;5073676;28;20368;-28
2023/12/25 12:12:28;;;;;;;7.03;1.27;;;;;;;;;;5073524;28;20100;-27
2023/12/25 12:14:54;;;;;;;4.05;1.30;;;;;;;;;;5073663;28;20078;-27
2023/12/25 12:17:19;;;;;;;7.47;1.30;;;;;;;;;;5073872;28;20036;-27
2023/12/25 12:19:44;;;;;;;8.02;1.40;;;;;;;;;;5073659;28;20021;-28
2023/12/25 12:22:09;;;;;;;7.00;1.58;;;;;;;;;;5074043;28;20048;-27
2023/12/25 12:24:35;;;;;;;7.72;1.40;;;;;;;;;;5074094;28;20047;-28
2023/12/25 12:27:04;;;;;;;5.17;1.60;;;;;;;;;;5072227;28;20352;-28
2023/12/25 12:29:29;;;;;;;7.07;1.88;;;;;;;;;;5072903;28;20597;-28
2023/12/25 12:31:54;;;;;;;5.75;1.50;;;;;;;;;;5073490;28;20021;-28
2023/12/25 12:34:20;;;;;;;9.07;1.70;;;;;;;;;;5074035;28;20024;-28
2023/12/25 12:36:55;;;;;;;4.85;0.98;;;;;;;;;;5073303;28;20614;-27
2023/12/25 12:39:20;;;;;;;4.75;1.50;;;;;;;;;;5073267;28;20097;-28
2023/12/25 12:41:45;;;;;;;10.48;1.70;;;;;;;;;;5073323;28;20592;-28
2023/12/25 12:44:10;;;;;;;6.50;1.17;;;;;;;;;;5073957;28;20019;-28
2023/12/25 12:46:36;;;;;;;6.05;1.50;;;;;;;;;;5073913;28;20096;-28
2023/12/25 12:49:01;;;;;;;4.78;1.10;;;;;;;;;;5072287;28;20066;-28
2023/12/25 12:51:26;;;;;;;4.27;1.20;;;;;;;;;;5073546;28;20013;-28
2023/12/25 12:53:51;;;;;;;6.15;1.27;;;;;;;;;;5073557;28;20341;-27
2023/12/25 12:56:17;;;;;;;7.38;1.63;;;;;;;;;;5055416;28;20039;-28
2023/12/25 12:58:42;;;;;;;7.65;1.60;;;;;;;;;;5073487;28;20020;-28
2023/12/25 13:01:08;;;;;;;7.75;1.50;;;;;;;;;;5073512;28;20028;-28
2023/12/25 13:03:34;;;;;;;6.50;1.90;;;;;;;;;;5073336;28;20052;-28
2023/12/25 13:05:59;;;;;;;5.88;1.70;;;;;;;;;;5073961;28;20017;-28
2023/12/25 13:08:25;;;;;;;12.70;2.00;;;;;;;;;;5073685;28;20021;-28
2023/12/25 13:10:50;;;;;;;7.72;1.75;;;;;;;;;;5073056;28;20603;-29
2023/12/25 13:13:16;;;;;;;8.32;1.90;;;;;;;;;;5073079;28;20048;-28
2023/12/25 13:15:41;;;;;;;9.40;2.13;;;;;;;;;;5072650;28;20027;-28
2023/12/25 13:18:07;;;;;;;10.45;2.03;;;;;;;;;;5072422;28;20367;-29
2023/12/25 13:20:32;;;;;;;11.32;1.90;;;;;;;;;;5073386;28;20013;-28
2023/12/25 13:22:58;;;;;;;6.65;1.70;;;;;;;;;;5072955;28;20129;-28
2023/12/25 13:25:23;;;;;;;7.25;1.70;;;;;;;;;;5073375;28;20585;-29
2023/12/25 13:27:48;;;;;;;7.57;2.23;;;;;;;;;;5073009;28;20024;-28
2023/12/25 13:30:13;;;;;;;7.30;2.40;;;;;;;;;;5072962;28;20255;-28
2023/12/25 13:32:39;;;;;;;6.45;1.70;;;;;;;;;;5073240;28;20020;-28
2023/12/25 13:35:04;;;;;;;12.00;2.00;;;;;;;;;;5073518;28;20095;-28
2023/12/25 13:37:29;;;;;;;6.15;1.35;;;;;;;;;;5071715;28;20749;-28
2023/12/25 13:39:55;;;;;;;8.93;1.60;;;;;;;;;;5072853;28;20099;-28
2023/12/25 13:42:22;;;;;;;10.48;2.17;;;;;;;;;;5072790;28;20094;-29
2023/12/25 13:44:47;;;;;;;8.88;1.88;;;;;;;;;;5073143;28;20066;-29
2023/12/25 13:47:13;;;;;;;10.75;1.92;;;;;;;;;;5072722;28;20017;-29
2023/12/25 13:49:38;;;;;;;10.30;1.83;;;;;;;;;;5074764;28;20021;-29
2023/12/25 13:52:04;;;;;;;10.50;2.13;;;;;;;;;;5077044;28;20077;-28
2023/12/25 13:54:29;;;;;;;9.50;1.85;;;;;;;;;;5076588;28;20794;-29
2023/12/25 13:56:56;;;;;;;7.80;2.30;;;;;;;;;;5076259;28;20024;-28
2023/12/25 13:59:21;;;;;;;6.40;2.67;;;;;;;;;;5076555;28;20749;-28
2023/12/25 14:01:46;;;;;;;7.55;2.13;;;;;;;;;;5076238;28;20020;-28
2023/12/25 14:04:12;;;;;;;8.98;1.83;;;;;;;;;;5076064;28;20039;-28
2023/12/25 14:06:37;;;;;;;7.25;2.30;;;;;;;;;;5076471;28;20008;-28
2023/12/25 14:09:04;;;;;;;8.93;1.95;;;;;;;;;;5076093;28;20066;-28
2023/12/25 14:11:29;;;;;;;3.55;1.38;;;;;;;;;;5076303;28;20017;-28
2023/12/25 14:13:54;;;;;;;7.53;1.73;;;;;;;;;;5076110;28;20013;-28
2023/12/25 14:16:19;;;;;;;6.95;1.77;;;;;;;;;;5076021;28;20020;-28
2023/12/25 14:18:45;;;;;;;7.10;2.30;;;;;;;;;;5076284;28;20016;-28
2023/12/25 14:21:10;;;;;;;8.13;2.03;;;;;;;;;;5075817;28;20024;-28
2023/12/25 14:23:35;;;;;;;5.65;1.63;;;;;;;;;;5075814;28;20027;-28
2023/12/25 14:26:01;;;;;;;6.57;1.50;;;;;;;;;;5076082;28;20016;-28